sensor_id;sensor_type;location;lat;lon;timestamp;P1;durP1;ratioP1;P2;durP2;ratioP2
54795;SDS011;40693;43.884;20.340;2022-10-16T00:00:37;36.95;;;22.17;;
54795;SDS011;40693;43.884;20.340;2022-10-16T00:03:04;27.77;;;18.90;;
54795;SDS011;40693;43.884;20.340;2022-10-16T00:05:31;39.13;;;23.73;;
54795;SDS011;40693;43.884;20.340;2022-10-16T00:07:57;39.30;;;23.50;;
54795;SDS011;40693;43.884;20.340;2022-10-16T00:10:23;38.92;;;23.88;;
54795;SDS011;40693;43.884;20.340;2022-10-16T00:12:49;38.05;;;23.05;;
54795;SDS011;40693;43.884;20.340;2022-10-16T00:15:15;37.33;;;22.40;;
54795;SDS011;40693;43.884;20.340;2022-10-16T00:17:41;30.88;;;19.08;;
54795;SDS011;40693;43.884;20.340;2022-10-16T00:20:07;35.13;;;21.75;;
54795;SDS011;40693;43.884;20.340;2022-10-16T00:22:33;27.23;;;18.35;;
54795;SDS011;40693;43.884;20.340;2022-10-16T00:24:59;29.92;;;19.00;;
54795;SDS011;40693;43.884;20.340;2022-10-16T00:27:24;27.63;;;16.70;;
54795;SDS011;40693;43.884;20.340;2022-10-16T00:29:51;24.83;;;15.80;;
54795;SDS011;40693;43.884;20.340;2022-10-16T00:32:17;24.75;;;15.05;;
54795;SDS011;40693;43.884;20.340;2022-10-16T00:34:44;25.83;;;15.00;;
54795;SDS011;40693;43.884;20.340;2022-10-16T00:37:10;22.60;;;15.27;;
54795;SDS011;40693;43.884;20.340;2022-10-16T00:39:37;25.55;;;16.00;;
54795;SDS011;40693;43.884;20.340;2022-10-16T00:42:03;21.38;;;14.10;;
54795;SDS011;40693;43.884;20.340;2022-10-16T00:44:42;21.15;;;11.85;;
54795;SDS011;40693;43.884;20.340;2022-10-16T00:47:39;17.02;;;12.13;;
54795;SDS011;40693;43.884;20.340;2022-10-16T00:52:55;18.23;;;12.60;;
54795;SDS011;40693;43.884;20.340;2022-10-16T00:55:22;17.00;;;10.98;;
54795;SDS011;40693;43.884;20.340;2022-10-16T00:57:49;20.67;;;10.15;;
54795;SDS011;40693;43.884;20.340;2022-10-16T01:00:18;16.98;;;11.40;;
54795;SDS011;40693;43.884;20.340;2022-10-16T01:02:57;17.08;;;12.13;;
54795;SDS011;40693;43.884;20.340;2022-10-16T01:05:35;21.23;;;11.45;;
54795;SDS011;40693;43.884;20.340;2022-10-16T01:08:13;23.33;;;11.05;;
54795;SDS011;40693;43.884;20.340;2022-10-16T01:10:51;20.08;;;12.85;;
54795;SDS011;40693;43.884;20.340;2022-10-16T01:13:32;17.20;;;10.70;;
54795;SDS011;40693;43.884;20.340;2022-10-16T01:18:45;18.00;;;11.50;;
54795;SDS011;40693;43.884;20.340;2022-10-16T01:21:22;18.35;;;11.15;;
54795;SDS011;40693;43.884;20.340;2022-10-16T01:29:34;18.70;;;12.18;;
54795;SDS011;40693;43.884;20.340;2022-10-16T01:35:09;18.38;;;12.20;;
54795;SDS011;40693;43.884;20.340;2022-10-16T01:40:19;16.67;;;11.57;;
54795;SDS011;40693;43.884;20.340;2022-10-16T01:42:56;16.58;;;11.40;;
54795;SDS011;40693;43.884;20.340;2022-10-16T01:45:35;20.38;;;12.73;;
54795;SDS011;40693;43.884;20.340;2022-10-16T01:48:02;21.38;;;11.80;;
54795;SDS011;40693;43.884;20.340;2022-10-16T01:50:33;22.10;;;12.48;;
54795;SDS011;40693;43.884;20.340;2022-10-16T01:53:02;17.42;;;12.15;;
54795;SDS011;40693;43.884;20.340;2022-10-16T01:55:31;21.73;;;12.18;;
54795;SDS011;40693;43.884;20.340;2022-10-16T01:58:01;17.48;;;11.55;;
54795;SDS011;40693;43.884;20.340;2022-10-16T02:00:30;21.55;;;12.45;;
54795;SDS011;40693;43.884;20.340;2022-10-16T02:02:56;19.52;;;12.50;;
54795;SDS011;40693;43.884;20.340;2022-10-16T02:05:28;17.60;;;12.13;;
54795;SDS011;40693;43.884;20.340;2022-10-16T02:07:59;17.17;;;12.07;;
54795;SDS011;40693;43.884;20.340;2022-10-16T02:10:25;22.60;;;14.80;;
54795;SDS011;40693;43.884;20.340;2022-10-16T02:13:12;21.90;;;14.48;;
54795;SDS011;40693;43.884;20.340;2022-10-16T02:15:48;21.58;;;15.57;;
54795;SDS011;40693;43.884;20.340;2022-10-16T02:18:14;18.42;;;13.38;;
54795;SDS011;40693;43.884;20.340;2022-10-16T02:26:27;18.75;;;11.45;;
54795;SDS011;40693;43.884;20.340;2022-10-16T02:29:01;14.50;;;9.60;;
54795;SDS011;40693;43.884;20.340;2022-10-16T02:31:32;17.58;;;10.27;;
54795;SDS011;40693;43.884;20.340;2022-10-16T02:34:00;14.27;;;10.05;;
54795;SDS011;40693;43.884;20.340;2022-10-16T02:36:30;12.27;;;9.30;;
54795;SDS011;40693;43.884;20.340;2022-10-16T02:38:57;15.65;;;10.07;;
54795;SDS011;40693;43.884;20.340;2022-10-16T02:41:25;14.15;;;9.85;;
54795;SDS011;40693;43.884;20.340;2022-10-16T02:43:51;15.25;;;10.77;;
54795;SDS011;40693;43.884;20.340;2022-10-16T02:46:17;14.07;;;9.50;;
54795;SDS011;40693;43.884;20.340;2022-10-16T02:48:44;18.50;;;12.15;;
54795;SDS011;40693;43.884;20.340;2022-10-16T02:51:09;18.83;;;12.27;;
54795;SDS011;40693;43.884;20.340;2022-10-16T02:53:35;15.20;;;10.30;;
54795;SDS011;40693;43.884;20.340;2022-10-16T02:56:01;16.83;;;11.65;;
54795;SDS011;40693;43.884;20.340;2022-10-16T02:58:26;16.23;;;11.38;;
54795;SDS011;40693;43.884;20.340;2022-10-16T03:00:52;16.27;;;11.70;;
54795;SDS011;40693;43.884;20.340;2022-10-16T03:03:18;18.10;;;11.48;;
54795;SDS011;40693;43.884;20.340;2022-10-16T03:05:44;18.40;;;11.25;;
54795;SDS011;40693;43.884;20.340;2022-10-16T03:08:13;19.55;;;12.30;;
54795;SDS011;40693;43.884;20.340;2022-10-16T03:10:39;19.30;;;11.55;;
54795;SDS011;40693;43.884;20.340;2022-10-16T03:13:05;13.25;;;9.85;;
54795;SDS011;40693;43.884;20.340;2022-10-16T03:15:31;19.65;;;13.32;;
54795;SDS011;40693;43.884;20.340;2022-10-16T03:17:59;20.73;;;15.02;;
54795;SDS011;40693;43.884;20.340;2022-10-16T03:20:25;19.25;;;12.90;;
54795;SDS011;40693;43.884;20.340;2022-10-16T03:22:51;20.42;;;15.75;;
54795;SDS011;40693;43.884;20.340;2022-10-16T03:25:17;18.98;;;13.93;;
54795;SDS011;40693;43.884;20.340;2022-10-16T03:27:43;18.48;;;13.90;;
54795;SDS011;40693;43.884;20.340;2022-10-16T03:30:09;18.60;;;12.30;;
54795;SDS011;40693;43.884;20.340;2022-10-16T03:32:35;18.73;;;12.35;;
54795;SDS011;40693;43.884;20.340;2022-10-16T03:35:01;15.50;;;11.00;;
54795;SDS011;40693;43.884;20.340;2022-10-16T03:37:27;17.65;;;11.30;;
54795;SDS011;40693;43.884;20.340;2022-10-16T03:39:53;16.15;;;11.90;;
54795;SDS011;40693;43.884;20.340;2022-10-16T03:42:19;21.33;;;12.98;;
54795;SDS011;40693;43.884;20.340;2022-10-16T03:44:45;26.05;;;13.75;;
54795;SDS011;40693;43.884;20.340;2022-10-16T03:47:10;21.58;;;14.23;;
54795;SDS011;40693;43.884;20.340;2022-10-16T03:49:36;20.75;;;14.23;;
54795;SDS011;40693;43.884;20.340;2022-10-16T03:52:02;23.50;;;15.20;;
54795;SDS011;40693;43.884;20.340;2022-10-16T03:54:27;20.30;;;14.07;;
54795;SDS011;40693;43.884;20.340;2022-10-16T03:56:53;20.25;;;14.63;;
54795;SDS011;40693;43.884;20.340;2022-10-16T03:59:19;26.95;;;15.77;;
54795;SDS011;40693;43.884;20.340;2022-10-16T04:01:45;23.67;;;14.73;;
54795;SDS011;40693;43.884;20.340;2022-10-16T04:04:11;22.15;;;16.23;;
54795;SDS011;40693;43.884;20.340;2022-10-16T04:06:36;21.80;;;14.20;;
54795;SDS011;40693;43.884;20.340;2022-10-16T04:09:02;21.10;;;14.52;;
54795;SDS011;40693;43.884;20.340;2022-10-16T04:11:28;16.75;;;12.10;;
54795;SDS011;40693;43.884;20.340;2022-10-16T04:13:54;18.17;;;12.13;;
54795;SDS011;40693;43.884;20.340;2022-10-16T04:16:20;17.88;;;11.63;;
54795;SDS011;40693;43.884;20.340;2022-10-16T04:18:46;20.42;;;12.20;;
54795;SDS011;40693;43.884;20.340;2022-10-16T04:21:12;23.17;;;13.27;;
54795;SDS011;40693;43.884;20.340;2022-10-16T04:23:37;15.90;;;11.98;;
54795;SDS011;40693;43.884;20.340;2022-10-16T04:26:03;19.08;;;12.55;;
54795;SDS011;40693;43.884;20.340;2022-10-16T04:28:29;19.48;;;13.65;;
54795;SDS011;40693;43.884;20.340;2022-10-16T04:30:54;21.90;;;13.15;;
54795;SDS011;40693;43.884;20.340;2022-10-16T04:33:21;16.83;;;12.57;;
54795;SDS011;40693;43.884;20.340;2022-10-16T04:35:46;18.73;;;13.43;;
54795;SDS011;40693;43.884;20.340;2022-10-16T04:38:12;20.45;;;12.70;;
54795;SDS011;40693;43.884;20.340;2022-10-16T04:40:38;21.48;;;13.55;;
54795;SDS011;40693;43.884;20.340;2022-10-16T04:43:04;17.02;;;13.20;;
54795;SDS011;40693;43.884;20.340;2022-10-16T04:45:30;22.02;;;11.80;;
54795;SDS011;40693;43.884;20.340;2022-10-16T04:47:59;16.83;;;11.98;;
54795;SDS011;40693;43.884;20.340;2022-10-16T04:50:25;18.60;;;13.60;;
54795;SDS011;40693;43.884;20.340;2022-10-16T04:52:51;24.55;;;14.77;;
54795;SDS011;40693;43.884;20.340;2022-10-16T04:55:17;22.40;;;15.98;;
54795;SDS011;40693;43.884;20.340;2022-10-16T04:57:42;19.83;;;14.18;;
54795;SDS011;40693;43.884;20.340;2022-10-16T05:00:08;19.95;;;14.00;;
54795;SDS011;40693;43.884;20.340;2022-10-16T05:02:34;17.77;;;12.73;;
54795;SDS011;40693;43.884;20.340;2022-10-16T05:05:00;18.17;;;13.15;;
54795;SDS011;40693;43.884;20.340;2022-10-16T05:07:26;22.45;;;13.98;;
54795;SDS011;40693;43.884;20.340;2022-10-16T05:09:51;19.98;;;13.65;;
54795;SDS011;40693;43.884;20.340;2022-10-16T05:12:18;20.92;;;15.57;;
54795;SDS011;40693;43.884;20.340;2022-10-16T05:14:44;18.60;;;14.90;;
54795;SDS011;40693;43.884;20.340;2022-10-16T05:17:09;19.90;;;13.10;;
54795;SDS011;40693;43.884;20.340;2022-10-16T05:19:35;21.08;;;15.48;;
54795;SDS011;40693;43.884;20.340;2022-10-16T05:22:01;24.90;;;16.35;;
54795;SDS011;40693;43.884;20.340;2022-10-16T05:24:27;25.30;;;16.95;;
54795;SDS011;40693;43.884;20.340;2022-10-16T05:26:52;29.40;;;21.23;;
54795;SDS011;40693;43.884;20.340;2022-10-16T05:29:18;36.30;;;24.10;;
54795;SDS011;40693;43.884;20.340;2022-10-16T05:31:44;27.38;;;20.80;;
54795;SDS011;40693;43.884;20.340;2022-10-16T05:34:10;30.83;;;20.98;;
54795;SDS011;40693;43.884;20.340;2022-10-16T05:36:36;44.67;;;28.70;;
54795;SDS011;40693;43.884;20.340;2022-10-16T05:39:02;35.08;;;24.27;;
54795;SDS011;40693;43.884;20.340;2022-10-16T05:41:28;34.92;;;23.48;;
54795;SDS011;40693;43.884;20.340;2022-10-16T05:43:54;27.33;;;21.48;;
54795;SDS011;40693;43.884;20.340;2022-10-16T05:46:19;33.45;;;19.70;;
54795;SDS011;40693;43.884;20.340;2022-10-16T05:48:45;35.92;;;20.92;;
54795;SDS011;40693;43.884;20.340;2022-10-16T05:51:12;35.10;;;21.33;;
54795;SDS011;40693;43.884;20.340;2022-10-16T05:53:39;29.63;;;20.05;;
54795;SDS011;40693;43.884;20.340;2022-10-16T05:56:06;29.52;;;19.45;;
54795;SDS011;40693;43.884;20.340;2022-10-16T05:58:34;25.92;;;17.85;;
54795;SDS011;40693;43.884;20.340;2022-10-16T06:01:04;23.27;;;16.40;;
54795;SDS011;40693;43.884;20.340;2022-10-16T06:03:32;27.88;;;18.23;;
54795;SDS011;40693;43.884;20.340;2022-10-16T06:05:58;41.28;;;17.90;;
54795;SDS011;40693;43.884;20.340;2022-10-16T06:08:24;26.33;;;14.50;;
54795;SDS011;40693;43.884;20.340;2022-10-16T06:11:00;22.75;;;14.20;;
54795;SDS011;40693;43.884;20.340;2022-10-16T06:13:27;20.17;;;13.85;;
54795;SDS011;40693;43.884;20.340;2022-10-16T06:15:56;25.52;;;15.18;;
54795;SDS011;40693;43.884;20.340;2022-10-16T06:18:23;25.25;;;16.60;;
54795;SDS011;40693;43.884;20.340;2022-10-16T06:20:49;19.48;;;13.60;;
54795;SDS011;40693;43.884;20.340;2022-10-16T06:23:15;25.85;;;16.63;;
54795;SDS011;40693;43.884;20.340;2022-10-16T06:25:41;26.65;;;17.58;;
54795;SDS011;40693;43.884;20.340;2022-10-16T06:28:07;23.13;;;15.73;;
54795;SDS011;40693;43.884;20.340;2022-10-16T06:30:32;29.73;;;16.35;;
54795;SDS011;40693;43.884;20.340;2022-10-16T06:32:58;22.77;;;15.98;;
54795;SDS011;40693;43.884;20.340;2022-10-16T06:35:24;23.55;;;16.13;;
54795;SDS011;40693;43.884;20.340;2022-10-16T06:37:50;21.63;;;15.77;;
54795;SDS011;40693;43.884;20.340;2022-10-16T06:40:17;23.02;;;14.68;;
54795;SDS011;40693;43.884;20.340;2022-10-16T06:42:43;21.75;;;13.68;;
54795;SDS011;40693;43.884;20.340;2022-10-16T06:45:09;19.27;;;13.07;;
54795;SDS011;40693;43.884;20.340;2022-10-16T06:47:35;25.85;;;14.85;;
54795;SDS011;40693;43.884;20.340;2022-10-16T06:50:01;20.95;;;15.48;;
54795;SDS011;40693;43.884;20.340;2022-10-16T06:52:30;22.17;;;14.10;;
54795;SDS011;40693;43.884;20.340;2022-10-16T06:54:55;20.45;;;14.32;;
54795;SDS011;40693;43.884;20.340;2022-10-16T06:57:21;20.95;;;14.00;;
54795;SDS011;40693;43.884;20.340;2022-10-16T06:59:48;22.67;;;14.43;;
54795;SDS011;40693;43.884;20.340;2022-10-16T07:02:13;23.27;;;15.15;;
54795;SDS011;40693;43.884;20.340;2022-10-16T07:04:39;22.65;;;15.90;;
54795;SDS011;40693;43.884;20.340;2022-10-16T07:07:05;24.23;;;15.27;;
54795;SDS011;40693;43.884;20.340;2022-10-16T07:09:31;23.45;;;16.52;;
54795;SDS011;40693;43.884;20.340;2022-10-16T07:11:57;22.38;;;15.70;;
54795;SDS011;40693;43.884;20.340;2022-10-16T07:14:22;25.08;;;15.90;;
54795;SDS011;40693;43.884;20.340;2022-10-16T07:16:48;23.48;;;15.85;;
54795;SDS011;40693;43.884;20.340;2022-10-16T07:19:14;22.33;;;15.27;;
54795;SDS011;40693;43.884;20.340;2022-10-16T07:21:42;23.80;;;15.55;;
54795;SDS011;40693;43.884;20.340;2022-10-16T07:24:15;24.88;;;16.73;;
54795;SDS011;40693;43.884;20.340;2022-10-16T07:26:42;22.02;;;16.35;;
54795;SDS011;40693;43.884;20.340;2022-10-16T07:29:15;23.02;;;16.10;;
54795;SDS011;40693;43.884;20.340;2022-10-16T07:31:43;27.55;;;16.05;;
54795;SDS011;40693;43.884;20.340;2022-10-16T07:34:09;29.63;;;17.17;;
54795;SDS011;40693;43.884;20.340;2022-10-16T07:36:37;22.92;;;16.80;;
54795;SDS011;40693;43.884;20.340;2022-10-16T07:39:03;21.67;;;15.10;;
54795;SDS011;40693;43.884;20.340;2022-10-16T07:41:29;21.17;;;15.65;;
54795;SDS011;40693;43.884;20.340;2022-10-16T07:43:57;25.98;;;18.02;;
54795;SDS011;40693;43.884;20.340;2022-10-16T07:46:27;22.58;;;15.70;;
54795;SDS011;40693;43.884;20.340;2022-10-16T07:48:53;28.02;;;17.67;;
54795;SDS011;40693;43.884;20.340;2022-10-16T07:51:20;22.20;;;16.45;;
54795;SDS011;40693;43.884;20.340;2022-10-16T07:53:47;22.27;;;15.65;;
54795;SDS011;40693;43.884;20.340;2022-10-16T07:56:14;21.73;;;16.02;;
54795;SDS011;40693;43.884;20.340;2022-10-16T07:58:41;22.08;;;15.20;;
54795;SDS011;40693;43.884;20.340;2022-10-16T08:01:08;21.52;;;14.68;;
54795;SDS011;40693;43.884;20.340;2022-10-16T08:03:35;25.15;;;14.82;;
54795;SDS011;40693;43.884;20.340;2022-10-16T08:06:02;20.83;;;14.93;;
54795;SDS011;40693;43.884;20.340;2022-10-16T08:08:28;20.92;;;15.05;;
54795;SDS011;40693;43.884;20.340;2022-10-16T08:10:54;21.73;;;14.52;;
54795;SDS011;40693;43.884;20.340;2022-10-16T08:13:20;16.48;;;12.32;;
54795;SDS011;40693;43.884;20.340;2022-10-16T08:15:46;22.17;;;14.18;;
54795;SDS011;40693;43.884;20.340;2022-10-16T08:18:13;18.02;;;13.40;;
54795;SDS011;40693;43.884;20.340;2022-10-16T08:20:39;19.42;;;13.48;;
54795;SDS011;40693;43.884;20.340;2022-10-16T08:23:06;22.40;;;15.25;;
54795;SDS011;40693;43.884;20.340;2022-10-16T08:25:36;22.05;;;13.75;;
54795;SDS011;40693;43.884;20.340;2022-10-16T08:28:06;30.70;;;21.25;;
54795;SDS011;40693;43.884;20.340;2022-10-16T08:30:33;20.77;;;15.70;;
54795;SDS011;40693;43.884;20.340;2022-10-16T08:32:59;20.55;;;15.13;;
54795;SDS011;40693;43.884;20.340;2022-10-16T08:35:25;18.60;;;15.85;;
54795;SDS011;40693;43.884;20.340;2022-10-16T08:37:51;19.05;;;14.35;;
54795;SDS011;40693;43.884;20.340;2022-10-16T08:40:20;14.80;;;11.23;;
54795;SDS011;40693;43.884;20.340;2022-10-16T08:50:55;25.27;;;12.70;;
54795;SDS011;40693;43.884;20.340;2022-10-16T08:53:31;22.92;;;13.85;;
54795;SDS011;40693;43.884;20.340;2022-10-16T08:56:14;18.60;;;12.48;;
54795;SDS011;40693;43.884;20.340;2022-10-16T08:58:42;18.25;;;12.90;;
54795;SDS011;40693;43.884;20.340;2022-10-16T09:01:11;19.30;;;12.52;;
54795;SDS011;40693;43.884;20.340;2022-10-16T09:22:44;13.52;;;10.18;;
54795;SDS011;40693;43.884;20.340;2022-10-16T09:25:10;14.25;;;9.77;;
54795;SDS011;40693;43.884;20.340;2022-10-16T09:27:38;15.23;;;11.32;;
54795;SDS011;40693;43.884;20.340;2022-10-16T09:30:11;15.95;;;9.57;;
54795;SDS011;40693;43.884;20.340;2022-10-16T09:32:41;14.85;;;11.30;;
54795;SDS011;40693;43.884;20.340;2022-10-16T09:38:01;14.70;;;10.18;;
54795;SDS011;40693;43.884;20.340;2022-10-16T09:40:30;15.10;;;10.75;;
54795;SDS011;40693;43.884;20.340;2022-10-16T09:48:25;17.58;;;12.88;;
54795;SDS011;40693;43.884;20.340;2022-10-16T09:51:02;13.60;;;9.38;;
54795;SDS011;40693;43.884;20.340;2022-10-16T09:53:43;32.38;;;21.02;;
54795;SDS011;40693;43.884;20.340;2022-10-16T09:56:11;20.25;;;9.82;;
54795;SDS011;40693;43.884;20.340;2022-10-16T09:58:49;13.50;;;9.52;;
54795;SDS011;40693;43.884;20.340;2022-10-16T10:01:17;14.57;;;11.27;;
54795;SDS011;40693;43.884;20.340;2022-10-16T10:03:44;16.65;;;11.45;;
54795;SDS011;40693;43.884;20.340;2022-10-16T10:06:18;14.93;;;9.50;;
54795;SDS011;40693;43.884;20.340;2022-10-16T10:08:59;15.50;;;9.52;;
54795;SDS011;40693;43.884;20.340;2022-10-16T10:14:21;14.93;;;10.00;;
54795;SDS011;40693;43.884;20.340;2022-10-16T10:17:01;17.02;;;9.98;;
54795;SDS011;40693;43.884;20.340;2022-10-16T10:19:29;11.13;;;8.52;;
54795;SDS011;40693;43.884;20.340;2022-10-16T10:22:13;14.55;;;9.63;;
54795;SDS011;40693;43.884;20.340;2022-10-16T10:27:30;14.27;;;8.85;;
54795;SDS011;40693;43.884;20.340;2022-10-16T10:38:30;11.75;;;8.63;;
54795;SDS011;40693;43.884;20.340;2022-10-16T10:41:22;13.02;;;8.88;;
54795;SDS011;40693;43.884;20.340;2022-10-16T10:55:24;11.15;;;6.80;;
54795;SDS011;40693;43.884;20.340;2022-10-16T10:58:10;11.70;;;7.07;;
54795;SDS011;40693;43.884;20.340;2022-10-16T11:01:22;13.68;;;7.15;;
54795;SDS011;40693;43.884;20.340;2022-10-16T11:04:08;11.30;;;7.63;;
54795;SDS011;40693;43.884;20.340;2022-10-16T11:06:40;9.90;;;7.05;;
54795;SDS011;40693;43.884;20.340;2022-10-16T11:09:20;9.57;;;7.85;;
54795;SDS011;40693;43.884;20.340;2022-10-16T11:12:34;10.23;;;7.50;;
54795;SDS011;40693;43.884;20.340;2022-10-16T11:22:45;10.07;;;7.93;;
54795;SDS011;40693;43.884;20.340;2022-10-16T11:25:23;13.70;;;7.90;;
54795;SDS011;40693;43.884;20.340;2022-10-16T11:30:42;12.77;;;8.32;;
54795;SDS011;40693;43.884;20.340;2022-10-16T11:49:30;13.00;;;9.10;;
54795;SDS011;40693;43.884;20.340;2022-10-16T11:52:06;20.33;;;16.23;;
54795;SDS011;40693;43.884;20.340;2022-10-16T11:54:52;24.45;;;17.17;;
54795;SDS011;40693;43.884;20.340;2022-10-16T11:57:27;87.65;;;58.60;;
54795;SDS011;40693;43.884;20.340;2022-10-16T12:08:11;48.22;;;32.15;;
54795;SDS011;40693;43.884;20.340;2022-10-16T12:10:39;18.23;;;10.93;;
54795;SDS011;40693;43.884;20.340;2022-10-16T12:18:37;35.17;;;22.77;;
54795;SDS011;40693;43.884;20.340;2022-10-16T12:21:04;16.10;;;13.50;;
54795;SDS011;40693;43.884;20.340;2022-10-16T12:23:32;19.98;;;15.88;;
54795;SDS011;40693;43.884;20.340;2022-10-16T12:26:01;12.15;;;9.40;;
54795;SDS011;40693;43.884;20.340;2022-10-16T12:28:28;25.23;;;16.05;;
54795;SDS011;40693;43.884;20.340;2022-10-16T12:31:00;22.52;;;18.48;;
54795;SDS011;40693;43.884;20.340;2022-10-16T12:33:29;19.50;;;10.85;;
54795;SDS011;40693;43.884;20.340;2022-10-16T12:36:00;20.13;;;10.75;;
54795;SDS011;40693;43.884;20.340;2022-10-16T12:38:38;30.92;;;21.65;;
54795;SDS011;40693;43.884;20.340;2022-10-16T12:41:27;22.25;;;13.63;;
54795;SDS011;40693;43.884;20.340;2022-10-16T12:43:53;15.50;;;9.63;;
54795;SDS011;40693;43.884;20.340;2022-10-16T12:48:50;18.33;;;16.02;;
54795;SDS011;40693;43.884;20.340;2022-10-16T12:51:33;18.13;;;11.27;;
54795;SDS011;40693;43.884;20.340;2022-10-16T12:54:22;12.55;;;11.18;;
54795;SDS011;40693;43.884;20.340;2022-10-16T12:59:58;11.88;;;8.23;;
54795;SDS011;40693;43.884;20.340;2022-10-16T13:02:49;15.40;;;10.85;;
54795;SDS011;40693;43.884;20.340;2022-10-16T13:30:22;20.00;;;15.60;;
54795;SDS011;40693;43.884;20.340;2022-10-16T13:35:37;30.30;;;19.40;;
54795;SDS011;40693;43.884;20.340;2022-10-16T13:38:12;39.60;;;15.52;;
54795;SDS011;40693;43.884;20.340;2022-10-16T13:40:53;29.10;;;17.10;;
54795;SDS011;40693;43.884;20.340;2022-10-16T13:46:17;22.50;;;14.85;;
54795;SDS011;40693;43.884;20.340;2022-10-16T13:48:44;20.10;;;12.90;;
54795;SDS011;40693;43.884;20.340;2022-10-16T13:51:25;19.23;;;13.98;;
54795;SDS011;40693;43.884;20.340;2022-10-16T13:53:51;16.42;;;11.95;;
54795;SDS011;40693;43.884;20.340;2022-10-16T13:56:18;16.20;;;12.70;;
54795;SDS011;40693;43.884;20.340;2022-10-16T13:58:46;9.93;;;7.93;;
54795;SDS011;40693;43.884;20.340;2022-10-16T14:01:24;11.23;;;9.07;;
54795;SDS011;40693;43.884;20.340;2022-10-16T14:03:53;18.08;;;13.88;;
54795;SDS011;40693;43.884;20.340;2022-10-16T14:06:30;18.50;;;14.25;;
54795;SDS011;40693;43.884;20.340;2022-10-16T14:08:59;9.20;;;7.00;;
54795;SDS011;40693;43.884;20.340;2022-10-16T14:11:49;13.07;;;9.77;;
54795;SDS011;40693;43.884;20.340;2022-10-16T14:14:19;16.23;;;9.73;;
54795;SDS011;40693;43.884;20.340;2022-10-16T14:16:45;11.65;;;7.60;;
54795;SDS011;40693;43.884;20.340;2022-10-16T14:19:27;53.35;;;41.75;;
54795;SDS011;40693;43.884;20.340;2022-10-16T14:26:56;37.88;;;20.60;;
54795;SDS011;40693;43.884;20.340;2022-10-16T14:29:23;44.05;;;28.42;;
54795;SDS011;40693;43.884;20.340;2022-10-16T14:31:57;25.52;;;20.38;;
54795;SDS011;40693;43.884;20.340;2022-10-16T14:34:29;17.17;;;10.38;;
54795;SDS011;40693;43.884;20.340;2022-10-16T14:36:59;29.67;;;24.58;;
54795;SDS011;40693;43.884;20.340;2022-10-16T14:39:31;26.98;;;20.77;;
54795;SDS011;40693;43.884;20.340;2022-10-16T14:41:58;13.98;;;10.80;;
54795;SDS011;40693;43.884;20.340;2022-10-16T14:44:27;26.30;;;18.98;;
54795;SDS011;40693;43.884;20.340;2022-10-16T14:46:56;13.85;;;11.13;;
54795;SDS011;40693;43.884;20.340;2022-10-16T14:49:22;26.40;;;17.17;;
54795;SDS011;40693;43.884;20.340;2022-10-16T14:51:53;19.83;;;10.88;;
54795;SDS011;40693;43.884;20.340;2022-10-16T14:54:18;16.55;;;12.75;;
54795;SDS011;40693;43.884;20.340;2022-10-16T14:56:51;23.63;;;17.48;;
54795;SDS011;40693;43.884;20.340;2022-10-16T14:59:39;36.05;;;27.38;;
54795;SDS011;40693;43.884;20.340;2022-10-16T15:02:28;21.13;;;16.27;;
54795;SDS011;40693;43.884;20.340;2022-10-16T15:04:56;26.20;;;18.50;;
54795;SDS011;40693;43.884;20.340;2022-10-16T15:07:23;20.52;;;14.93;;
54795;SDS011;40693;43.884;20.340;2022-10-16T15:09:49;21.80;;;15.60;;
54795;SDS011;40693;43.884;20.340;2022-10-16T15:12:16;18.35;;;14.27;;
54795;SDS011;40693;43.884;20.340;2022-10-16T15:14:43;33.50;;;20.85;;
54795;SDS011;40693;43.884;20.340;2022-10-16T15:17:09;53.72;;;35.40;;
54795;SDS011;40693;43.884;20.340;2022-10-16T15:19:36;52.85;;;36.97;;
54795;SDS011;40693;43.884;20.340;2022-10-16T15:22:02;34.67;;;29.30;;
54795;SDS011;40693;43.884;20.340;2022-10-16T15:24:27;23.85;;;17.88;;
54795;SDS011;40693;43.884;20.340;2022-10-16T15:26:53;92.70;;;54.20;;
54795;SDS011;40693;43.884;20.340;2022-10-16T15:29:19;78.72;;;44.90;;
54795;SDS011;40693;43.884;20.340;2022-10-16T15:31:45;24.33;;;17.80;;
54795;SDS011;40693;43.884;20.340;2022-10-16T15:34:12;29.27;;;17.80;;
54795;SDS011;40693;43.884;20.340;2022-10-16T15:36:39;34.78;;;24.33;;
54795;SDS011;40693;43.884;20.340;2022-10-16T15:39:12;36.50;;;26.42;;
54795;SDS011;40693;43.884;20.340;2022-10-16T15:41:39;43.30;;;28.73;;
54795;SDS011;40693;43.884;20.340;2022-10-16T15:44:06;32.70;;;23.42;;
54795;SDS011;40693;43.884;20.340;2022-10-16T15:46:32;43.85;;;27.15;;
54795;SDS011;40693;43.884;20.340;2022-10-16T15:48:59;33.55;;;22.73;;
54795;SDS011;40693;43.884;20.340;2022-10-16T15:51:26;33.65;;;20.67;;
54795;SDS011;40693;43.884;20.340;2022-10-16T15:53:55;36.80;;;21.98;;
54795;SDS011;40693;43.884;20.340;2022-10-16T15:56:22;32.10;;;21.67;;
54795;SDS011;40693;43.884;20.340;2022-10-16T15:58:50;30.95;;;20.67;;
54795;SDS011;40693;43.884;20.340;2022-10-16T16:01:17;28.63;;;20.42;;
54795;SDS011;40693;43.884;20.340;2022-10-16T16:03:43;30.80;;;19.40;;
54795;SDS011;40693;43.884;20.340;2022-10-16T16:06:10;25.15;;;18.58;;
54795;SDS011;40693;43.884;20.340;2022-10-16T16:08:37;24.20;;;18.10;;
54795;SDS011;40693;43.884;20.340;2022-10-16T16:11:08;23.75;;;16.35;;
54795;SDS011;40693;43.884;20.340;2022-10-16T16:13:36;25.92;;;18.45;;
54795;SDS011;40693;43.884;20.340;2022-10-16T16:16:08;32.17;;;19.42;;
54795;SDS011;40693;43.884;20.340;2022-10-16T16:18:35;26.25;;;18.85;;
54795;SDS011;40693;43.884;20.340;2022-10-16T16:21:02;31.02;;;20.63;;
54795;SDS011;40693;43.884;20.340;2022-10-16T16:23:30;45.35;;;28.80;;
54795;SDS011;40693;43.884;20.340;2022-10-16T16:26:07;63.25;;;37.92;;
54795;SDS011;40693;43.884;20.340;2022-10-16T16:28:37;42.30;;;32.45;;
54795;SDS011;40693;43.884;20.340;2022-10-16T16:31:04;40.80;;;28.42;;
54795;SDS011;40693;43.884;20.340;2022-10-16T16:33:30;39.47;;;28.85;;
54795;SDS011;40693;43.884;20.340;2022-10-16T16:36:02;51.85;;;34.78;;
54795;SDS011;40693;43.884;20.340;2022-10-16T16:38:31;270.10;;;182.30;;
54795;SDS011;40693;43.884;20.340;2022-10-16T16:40:58;269.13;;;170.50;;
54795;SDS011;40693;43.884;20.340;2022-10-16T16:43:24;195.45;;;144.50;;
54795;SDS011;40693;43.884;20.340;2022-10-16T16:45:51;110.13;;;74.88;;
54795;SDS011;40693;43.884;20.340;2022-10-16T16:48:18;107.68;;;72.22;;
54795;SDS011;40693;43.884;20.340;2022-10-16T16:50:44;87.13;;;58.47;;
54795;SDS011;40693;43.884;20.340;2022-10-16T16:53:10;91.57;;;64.35;;
54795;SDS011;40693;43.884;20.340;2022-10-16T16:55:36;89.20;;;61.17;;
54795;SDS011;40693;43.884;20.340;2022-10-16T16:58:01;79.20;;;52.88;;
54795;SDS011;40693;43.884;20.340;2022-10-16T17:00:28;48.90;;;34.88;;
54795;SDS011;40693;43.884;20.340;2022-10-16T17:02:56;52.47;;;35.65;;
54795;SDS011;40693;43.884;20.340;2022-10-16T17:05:22;49.72;;;35.85;;
54795;SDS011;40693;43.884;20.340;2022-10-16T17:07:48;52.92;;;37.97;;